createdAt,value
2022-08-14T00:03:29.575Z,28.50
2022-08-14T00:08:42.047Z,28.60
2022-08-14T00:13:51.727Z,28.70
2022-08-14T00:19:06.939Z,28.90
2022-08-14T00:24:29.075Z,29.10
2022-08-14T00:29:40.711Z,28.90
2022-08-14T00:34:49.080Z,28.60
2022-08-14T00:39:55.166Z,28.60
2022-08-14T00:45:01.042Z,28.40
2022-08-14T00:50:08.792Z,28.30
2022-08-14T01:09:40.184Z,29.20
2022-08-14T01:14:46.389Z,29.50
2022-08-14T01:20:27.193Z,29.40
2022-08-14T01:25:33.665Z,29.40
2022-08-14T01:30:43.058Z,29.70
2022-08-14T01:36:03.700Z,30.00
2022-08-14T01:41:14.971Z,30.60
2022-08-14T01:46:33.582Z,31.70
2022-08-14T01:51:43.765Z,32.30
2022-08-14T01:56:49.769Z,32.20
2022-08-14T02:02:06.992Z,32.60
2022-08-14T02:07:15.978Z,32.70
2022-08-14T02:12:26.625Z,31.90
2022-08-14T02:17:41.938Z,31.40
2022-08-14T02:22:49.046Z,31.70
2022-08-14T02:28:24.028Z,32.40
2022-08-14T02:33:24.954Z,33.20
2022-08-14T02:38:35.357Z,33.50
2022-08-14T02:43:46.411Z,34.10
2022-08-14T02:49:05.270Z,33.70
2022-08-14T02:54:13.381Z,33.20
2022-08-14T02:59:33.754Z,33.10
2022-08-14T03:04:41.321Z,32.90
2022-08-14T03:10:28.004Z,33.00
2022-08-14T03:15:19.025Z,33.40
2022-08-14T03:20:25.365Z,34.10
2022-08-14T03:25:37.851Z,34.40
2022-08-14T03:30:44.020Z,35.10
2022-08-14T03:36:05.113Z,35.60
2022-08-14T03:41:18.442Z,34.80
2022-08-14T03:46:39.161Z,34.70
2022-08-14T03:51:51.685Z,34.90
2022-08-14T03:57:03.640Z,35.00
2022-08-14T04:02:37.062Z,34.80
2022-08-14T04:07:36.261Z,34.90
2022-08-14T04:12:43.188Z,35.00
2022-08-14T04:17:58.091Z,35.40
2022-08-14T04:23:05.148Z,35.10
2022-08-14T04:29:07.107Z,34.80
2022-08-14T04:33:39.283Z,34.80
2022-08-14T04:39:03.382Z,35.30
2022-08-14T04:44:09.590Z,35.40
2022-08-14T04:49:32.411Z,35.60
2022-08-14T04:54:44.260Z,35.50
2022-08-14T04:59:54.203Z,35.20
2022-08-14T05:04:59.708Z,35.10
2022-08-14T05:10:12.690Z,34.80
2022-08-14T05:15:20.886Z,34.90
2022-08-14T05:21:55.893Z,35.00
2022-08-14T05:25:58.225Z,35.00
2022-08-14T05:31:10.304Z,35.20
2022-08-14T05:36:17.175Z,35.40
2022-08-14T05:41:22.958Z,35.70
2022-08-14T05:46:33.284Z,36.30
2022-08-14T05:51:38.513Z,37.30
2022-08-14T05:56:46.545Z,38.30
2022-08-14T06:01:52.003Z,38.70
2022-08-14T06:06:57.034Z,39.00
2022-08-14T06:12:04.684Z,40.00
2022-08-14T06:17:15.762Z,41.00
2022-08-14T06:22:31.896Z,40.20
2022-08-14T06:27:49.210Z,38.60
2022-08-14T06:32:57.256Z,38.00
2022-08-14T06:38:04.615Z,39.30
2022-08-14T06:43:15.443Z,39.00
2022-08-14T06:48:26.813Z,38.30
2022-08-14T06:53:33.864Z,37.80
2022-08-14T06:58:39.389Z,36.80
2022-08-14T07:04:05.045Z,38.20
2022-08-14T07:09:23.110Z,37.40
2022-08-14T07:14:33.214Z,37.40
2022-08-14T07:19:40.623Z,38.20
2022-08-14T07:24:47.085Z,39.90
2022-08-14T07:29:55.203Z,40.60
2022-08-14T07:35:01.459Z,41.40
2022-08-14T07:40:08.982Z,40.20
2022-08-14T07:45:20.812Z,38.90
2022-08-14T07:50:34.626Z,37.30
2022-08-14T07:55:41.656Z,37.10
2022-08-14T08:00:51.284Z,37.00
2022-08-14T08:05:57.791Z,36.00
2022-08-14T08:11:15.024Z,35.10
2022-08-14T08:16:25.170Z,34.40
2022-08-14T08:21:35.545Z,34.10
2022-08-14T08:26:41.395Z,34.10
2022-08-14T08:31:52.608Z,34.00
2022-08-14T08:37:06.617Z,33.90
2022-08-14T08:42:13.645Z,33.70
2022-08-14T08:47:20.439Z,33.60
2022-08-14T08:59:01.833Z,33.30
2022-08-14T09:04:14.782Z,32.80
2022-08-14T09:16:45.175Z,31.90
2022-08-14T09:21:55.365Z,30.70
2022-08-14T09:27:02.155Z,30.00
2022-08-14T09:32:10.229Z,29.50
2022-08-14T09:38:19.551Z,29.40
2022-08-14T09:43:48.867Z,29.70
2022-08-14T09:49:16.346Z,29.60
2022-08-14T09:54:53.813Z,29.40
2022-08-14T10:05:42.602Z,29.30
2022-08-14T10:11:02.778Z,29.20
2022-08-14T10:16:21.127Z,29.00
2022-08-14T10:21:38.892Z,28.60
2022-08-14T10:27:05.009Z,28.20
2022-08-14T10:32:18.154Z,28.00
2022-08-14T10:37:44.263Z,27.90
2022-08-14T10:42:52.064Z,28.00
2022-08-14T10:48:08.833Z,28.00
2022-08-14T10:53:16.825Z,28.10
2022-08-14T10:58:34.553Z,28.00
2022-08-14T11:03:56.925Z,28.10
2022-08-14T11:09:17.092Z,28.00
2022-08-14T11:14:26.379Z,27.70
2022-08-14T11:19:35.036Z,27.50
2022-08-14T11:24:50.755Z,27.50
2022-08-14T11:30:50.314Z,27.30
2022-08-14T11:35:37.006Z,27.30
2022-08-14T11:40:53.800Z,27.30
2022-08-14T11:46:03.558Z,27.30
2022-08-14T11:51:24.056Z,27.20
2022-08-14T11:56:41.832Z,27.20
2022-08-14T12:01:50.349Z,27.40
2022-08-14T12:06:59.214Z,27.30
2022-08-14T12:12:35.604Z,27.50
2022-08-14T12:17:52.122Z,27.20
2022-08-14T12:23:02.634Z,27.10
2022-08-14T12:28:27.448Z,27.10
2022-08-14T12:33:46.881Z,27.10
2022-08-14T12:39:02.090Z,27.20
2022-08-14T12:44:10.221Z,27.30
2022-08-14T12:49:18.661Z,27.20
2022-08-14T12:54:28.548Z,27.30
2022-08-14T12:59:37.161Z,27.20
2022-08-14T13:04:51.862Z,27.20
2022-08-14T13:10:00.293Z,27.30
2022-08-14T13:15:12.734Z,27.40
2022-08-14T13:20:24.773Z,27.30
2022-08-14T13:25:34.707Z,27.30
2022-08-14T13:30:43.108Z,27.30
2022-08-14T13:35:50.829Z,27.30
2022-08-14T13:41:01.379Z,27.20
2022-08-14T13:46:08.014Z,27.10
2022-08-14T13:51:19.505Z,27.00
2022-08-14T13:56:36.894Z,27.00
2022-08-14T14:01:51.825Z,26.90
2022-08-14T14:06:59.031Z,26.90
2022-08-14T14:12:05.137Z,26.80
2022-08-14T14:17:18.531Z,26.80
2022-08-14T14:22:35.999Z,26.70
2022-08-14T14:27:53.412Z,26.80
2022-08-14T14:33:04.230Z,26.80
2022-08-14T14:38:17.164Z,26.80
2022-08-14T14:43:23.714Z,26.70
2022-08-14T14:48:33.069Z,26.60
2022-08-14T14:53:41.312Z,26.50
2022-08-14T14:58:47.705Z,26.50
2022-08-14T15:03:57.349Z,26.50
2022-08-14T15:09:08.935Z,26.50
2022-08-14T15:14:54.921Z,26.60
2022-08-14T15:19:56.677Z,26.50
2022-08-14T15:25:03.013Z,26.50
2022-08-14T15:30:11.516Z,26.40
2022-08-14T15:35:18.361Z,26.50
2022-08-14T15:53:31.516Z,26.40
2022-08-14T15:58:39.471Z,26.40
2022-08-14T16:10:30.517Z,26.40
2022-08-14T16:15:39.491Z,26.40
2022-08-14T16:20:59.367Z,26.30
2022-08-14T16:26:05.588Z,26.30
2022-08-14T16:31:11.641Z,26.30
2022-08-14T16:40:25.497Z,26.30
2022-08-14T16:41:52.310Z,26.30
2022-08-14T16:46:58.670Z,26.40
2022-08-14T16:52:25.218Z,26.40
2022-08-14T16:57:35.970Z,26.50
2022-08-14T17:17:59.797Z,26.40
2022-08-14T17:29:56.302Z,26.30
2022-08-14T17:35:10.746Z,26.30
2022-08-14T17:40:26.743Z,26.20
2022-08-14T17:45:43.223Z,26.20
2022-08-14T17:51:00.563Z,26.20
2022-08-14T17:56:07.978Z,26.10
2022-08-14T18:22:39.444Z,26.00
2022-08-14T18:27:51.496Z,26.00
2022-08-14T18:32:57.400Z,25.90
2022-08-14T18:38:26.398Z,25.80
2022-08-14T18:43:58.999Z,25.80
2022-08-14T18:49:18.127Z,25.80
2022-08-14T18:54:33.128Z,25.80
2022-08-14T18:59:43.231Z,25.80
2022-08-14T19:04:48.858Z,25.80
2022-08-14T19:09:58.198Z,25.70
2022-08-14T19:15:11.354Z,25.70
2022-08-14T19:20:21.603Z,25.70
2022-08-14T19:25:51.589Z,25.70
2022-08-14T19:31:42.103Z,25.70
2022-08-14T19:37:05.260Z,25.70
2022-08-14T19:42:12.947Z,25.70
2022-08-14T19:47:41.633Z,25.70
2022-08-14T19:52:47.563Z,25.80
2022-08-14T19:57:58.800Z,25.80
2022-08-14T20:03:13.516Z,25.90
2022-08-14T20:10:58.840Z,25.80
2022-08-14T20:14:02.619Z,25.80
2022-08-14T20:19:17.646Z,25.80
2022-08-14T20:24:42.268Z,25.80
2022-08-14T20:29:48.853Z,25.70
2022-08-14T20:34:57.009Z,25.70
2022-08-14T20:40:23.665Z,25.80
2022-08-14T20:45:30.892Z,25.80
2022-08-14T20:50:44.744Z,25.80
2022-08-14T20:55:53.570Z,25.80
2022-08-14T21:01:05.067Z,25.70
2022-08-14T21:07:22.879Z,25.70
2022-08-14T21:12:05.351Z,25.70
2022-08-14T21:17:11.894Z,25.70
2022-08-14T21:22:16.763Z,25.80
2022-08-14T21:27:24.136Z,25.70
2022-08-14T21:32:47.064Z,25.60
2022-08-14T21:37:57.130Z,25.60
2022-08-14T21:43:04.920Z,25.60
2022-08-14T21:48:16.834Z,25.60
2022-08-14T21:53:27.064Z,25.60
2022-08-14T21:58:52.177Z,25.70
2022-08-14T22:04:02.372Z,25.70
2022-08-14T22:09:32.579Z,25.70
2022-08-14T22:14:43.586Z,25.70
2022-08-14T22:19:55.234Z,25.80
2022-08-14T22:25:03.054Z,25.80
2022-08-14T22:30:12.935Z,25.80
2022-08-14T22:35:23.357Z,25.70
2022-08-14T22:41:07.528Z,25.70
2022-08-14T22:45:56.250Z,25.70
2022-08-14T22:51:02.782Z,25.80
2022-08-14T22:56:20.255Z,25.90
2022-08-14T23:01:58.817Z,25.90
2022-08-14T23:07:21.678Z,26.00
2022-08-14T23:12:34.913Z,26.10
2022-08-14T23:17:41.996Z,26.20
2022-08-14T23:22:51.308Z,26.30
2022-08-14T23:28:04.826Z,26.50
2022-08-14T23:33:17.977Z,26.60
2022-08-14T23:38:30.838Z,26.80
2022-08-14T23:43:48.320Z,27.10
2022-08-14T23:48:54.246Z,27.30
2022-08-14T23:54:02.919Z,27.50
2022-08-14T23:59:12.755Z,27.70
